sensor_id;sensor_type;location;lat;lon;timestamp;P1;durP1;ratioP1;P2;durP2;ratioP2
2039;SDS011;1025;42.686;23.350;2024-03-29T00:01:23;2.80;;;1.70;;
2039;SDS011;1025;42.686;23.350;2024-03-29T00:03:49;2.00;;;1.90;;
2039;SDS011;1025;42.686;23.350;2024-03-29T00:06:14;2.43;;;1.40;;
2039;SDS011;1025;42.686;23.350;2024-03-29T00:08:43;3.77;;;1.70;;
2039;SDS011;1025;42.686;23.350;2024-03-29T00:11:11;3.97;;;1.40;;
2039;SDS011;1025;42.686;23.350;2024-03-29T00:13:37;3.33;;;1.40;;
2039;SDS011;1025;42.686;23.350;2024-03-29T00:16:02;2.50;;;1.40;;
2039;SDS011;1025;42.686;23.350;2024-03-29T00:18:30;4.50;;;1.57;;
2039;SDS011;1025;42.686;23.350;2024-03-29T00:20:56;2.30;;;1.20;;
2039;SDS011;1025;42.686;23.350;2024-03-29T00:23:21;2.90;;;1.40;;
2039;SDS011;1025;42.686;23.350;2024-03-29T00:25:51;6.33;;;2.00;;
2039;SDS011;1025;42.686;23.350;2024-03-29T00:28:16;3.47;;;2.00;;
2039;SDS011;1025;42.686;23.350;2024-03-29T00:30:42;1.63;;;1.53;;
2039;SDS011;1025;42.686;23.350;2024-03-29T00:33:11;2.97;;;1.67;;
2039;SDS011;1025;42.686;23.350;2024-03-29T00:35:36;2.33;;;1.40;;
2039;SDS011;1025;42.686;23.350;2024-03-29T00:38:02;1.63;;;1.30;;
2039;SDS011;1025;42.686;23.350;2024-03-29T00:40:31;2.43;;;1.60;;
2039;SDS011;1025;42.686;23.350;2024-03-29T00:42:56;1.60;;;1.40;;
2039;SDS011;1025;42.686;23.350;2024-03-29T00:45:22;4.03;;;1.70;;
2039;SDS011;1025;42.686;23.350;2024-03-29T00:47:53;3.60;;;1.70;;
2039;SDS011;1025;42.686;23.350;2024-03-29T00:50:19;1.70;;;1.60;;
2039;SDS011;1025;42.686;23.350;2024-03-29T00:52:45;1.50;;;1.10;;
2039;SDS011;1025;42.686;23.350;2024-03-29T00:55:14;2.60;;;1.37;;
2039;SDS011;1025;42.686;23.350;2024-03-29T00:57:42;5.80;;;1.90;;
2039;SDS011;1025;42.686;23.350;2024-03-29T01:00:09;2.70;;;1.87;;
2039;SDS011;1025;42.686;23.350;2024-03-29T01:02:37;5.90;;;1.67;;
2039;SDS011;1025;42.686;23.350;2024-03-29T01:05:06;4.07;;;2.20;;
2039;SDS011;1025;42.686;23.350;2024-03-29T01:07:32;2.73;;;2.13;;
2039;SDS011;1025;42.686;23.350;2024-03-29T01:09:58;5.10;;;2.17;;
2039;SDS011;1025;42.686;23.350;2024-03-29T01:12:27;3.53;;;1.30;;
2039;SDS011;1025;42.686;23.350;2024-03-29T01:14:53;2.87;;;1.57;;
2039;SDS011;1025;42.686;23.350;2024-03-29T01:17:18;7.27;;;2.10;;
2039;SDS011;1025;42.686;23.350;2024-03-29T01:19:47;2.47;;;1.67;;
2039;SDS011;1025;42.686;23.350;2024-03-29T01:22:12;3.87;;;1.80;;
2039;SDS011;1025;42.686;23.350;2024-03-29T01:24:38;2.47;;;1.83;;
2039;SDS011;1025;42.686;23.350;2024-03-29T01:27:07;3.40;;;1.50;;
2039;SDS011;1025;42.686;23.350;2024-03-29T01:29:32;4.97;;;2.07;;
2039;SDS011;1025;42.686;23.350;2024-03-29T01:31:58;2.80;;;1.87;;
2039;SDS011;1025;42.686;23.350;2024-03-29T01:34:27;2.40;;;1.50;;
2039;SDS011;1025;42.686;23.350;2024-03-29T01:36:52;2.30;;;1.67;;
2039;SDS011;1025;42.686;23.350;2024-03-29T01:39:18;1.93;;;1.53;;
2039;SDS011;1025;42.686;23.350;2024-03-29T01:41:51;1.50;;;1.30;;
2039;SDS011;1025;42.686;23.350;2024-03-29T01:44:19;2.87;;;1.33;;
2039;SDS011;1025;42.686;23.350;2024-03-29T01:46:44;1.93;;;1.57;;
2039;SDS011;1025;42.686;23.350;2024-03-29T01:49:12;2.57;;;1.60;;
2039;SDS011;1025;42.686;23.350;2024-03-29T01:51:41;7.00;;;2.40;;
2039;SDS011;1025;42.686;23.350;2024-03-29T01:54:08;1.60;;;1.50;;
2039;SDS011;1025;42.686;23.350;2024-03-29T01:56:35;1.83;;;1.50;;
2039;SDS011;1025;42.686;23.350;2024-03-29T01:59:03;2.97;;;1.60;;
2039;SDS011;1025;42.686;23.350;2024-03-29T02:01:30;3.03;;;1.60;;
2039;SDS011;1025;42.686;23.350;2024-03-29T02:03:56;3.27;;;2.30;;
2039;SDS011;1025;42.686;23.350;2024-03-29T02:06:25;5.47;;;1.80;;
2039;SDS011;1025;42.686;23.350;2024-03-29T02:08:51;1.87;;;1.67;;
2039;SDS011;1025;42.686;23.350;2024-03-29T02:11:18;2.00;;;1.50;;
2039;SDS011;1025;42.686;23.350;2024-03-29T02:13:48;2.63;;;2.17;;
2039;SDS011;1025;42.686;23.350;2024-03-29T02:16:15;2.80;;;2.23;;
2039;SDS011;1025;42.686;23.350;2024-03-29T02:18:40;2.07;;;1.80;;
2039;SDS011;1025;42.686;23.350;2024-03-29T02:21:09;7.17;;;2.83;;
2039;SDS011;1025;42.686;23.350;2024-03-29T02:23:36;5.93;;;3.00;;
2039;SDS011;1025;42.686;23.350;2024-03-29T02:26:03;6.17;;;2.17;;
2039;SDS011;1025;42.686;23.350;2024-03-29T02:28:30;2.90;;;2.03;;
2039;SDS011;1025;42.686;23.350;2024-03-29T02:30:56;3.03;;;1.80;;
2039;SDS011;1025;42.686;23.350;2024-03-29T02:33:21;3.77;;;1.67;;
2039;SDS011;1025;42.686;23.350;2024-03-29T02:35:50;2.23;;;1.83;;
2039;SDS011;1025;42.686;23.350;2024-03-29T02:38:16;1.70;;;1.47;;
2039;SDS011;1025;42.686;23.350;2024-03-29T02:40:41;2.20;;;1.80;;
2039;SDS011;1025;42.686;23.350;2024-03-29T02:43:10;2.80;;;1.30;;
2039;SDS011;1025;42.686;23.350;2024-03-29T02:45:36;3.27;;;1.60;;
2039;SDS011;1025;42.686;23.350;2024-03-29T02:48:01;3.63;;;1.60;;
2039;SDS011;1025;42.686;23.350;2024-03-29T02:50:30;1.67;;;1.50;;
2039;SDS011;1025;42.686;23.350;2024-03-29T02:52:56;2.97;;;2.17;;
2039;SDS011;1025;42.686;23.350;2024-03-29T02:55:21;4.33;;;2.53;;
2039;SDS011;1025;42.686;23.350;2024-03-29T02:57:47;4.10;;;2.20;;
2039;SDS011;1025;42.686;23.350;2024-03-29T03:00:14;3.10;;;2.10;;
2039;SDS011;1025;42.686;23.350;2024-03-29T03:02:40;2.70;;;2.17;;
2039;SDS011;1025;42.686;23.350;2024-03-29T03:05:06;3.23;;;1.60;;
2039;SDS011;1025;42.686;23.350;2024-03-29T03:07:34;4.50;;;1.80;;
2039;SDS011;1025;42.686;23.350;2024-03-29T03:10:18;6.40;;;2.27;;
2039;SDS011;1025;42.686;23.350;2024-03-29T03:13:05;5.83;;;2.70;;
2039;SDS011;1025;42.686;23.350;2024-03-29T03:15:31;4.43;;;2.00;;
2039;SDS011;1025;42.686;23.350;2024-03-29T03:18:00;2.63;;;1.87;;
2039;SDS011;1025;42.686;23.350;2024-03-29T03:20:25;8.23;;;2.93;;
2039;SDS011;1025;42.686;23.350;2024-03-29T03:22:55;8.67;;;2.83;;
2039;SDS011;1025;42.686;23.350;2024-03-29T03:25:26;6.17;;;3.03;;
2039;SDS011;1025;42.686;23.350;2024-03-29T03:27:52;5.57;;;2.50;;
2039;SDS011;1025;42.686;23.350;2024-03-29T03:30:19;14.07;;;3.73;;
2039;SDS011;1025;42.686;23.350;2024-03-29T03:32:45;8.03;;;3.60;;
2039;SDS011;1025;42.686;23.350;2024-03-29T03:35:11;14.60;;;4.03;;
2039;SDS011;1025;42.686;23.350;2024-03-29T03:37:40;5.67;;;2.60;;
2039;SDS011;1025;42.686;23.350;2024-03-29T03:40:06;12.43;;;3.80;;
2039;SDS011;1025;42.686;23.350;2024-03-29T03:42:32;5.47;;;2.70;;
2039;SDS011;1025;42.686;23.350;2024-03-29T03:44:58;5.03;;;2.57;;
2039;SDS011;1025;42.686;23.350;2024-03-29T03:47:23;11.17;;;3.70;;
2039;SDS011;1025;42.686;23.350;2024-03-29T03:49:49;7.30;;;3.40;;
2039;SDS011;1025;42.686;23.350;2024-03-29T03:52:16;4.07;;;2.03;;
2039;SDS011;1025;42.686;23.350;2024-03-29T03:54:42;8.27;;;2.57;;
2039;SDS011;1025;42.686;23.350;2024-03-29T03:57:07;7.30;;;3.27;;
2039;SDS011;1025;42.686;23.350;2024-03-29T03:59:36;7.93;;;2.83;;
2039;SDS011;1025;42.686;23.350;2024-03-29T04:02:01;4.83;;;3.93;;
2039;SDS011;1025;42.686;23.350;2024-03-29T04:04:27;8.40;;;3.73;;
2039;SDS011;1025;42.686;23.350;2024-03-29T04:06:54;9.43;;;3.23;;
2039;SDS011;1025;42.686;23.350;2024-03-29T04:09:19;4.03;;;3.30;;
2039;SDS011;1025;42.686;23.350;2024-03-29T04:11:45;9.70;;;3.70;;
2039;SDS011;1025;42.686;23.350;2024-03-29T04:14:10;11.60;;;3.87;;
2039;SDS011;1025;42.686;23.350;2024-03-29T04:16:36;11.07;;;3.20;;
2039;SDS011;1025;42.686;23.350;2024-03-29T04:19:01;7.17;;;3.83;;
2039;SDS011;1025;42.686;23.350;2024-03-29T04:21:27;4.10;;;2.10;;
2039;SDS011;1025;42.686;23.350;2024-03-29T04:23:52;3.20;;;2.63;;
2039;SDS011;1025;42.686;23.350;2024-03-29T04:26:18;6.30;;;2.40;;
2039;SDS011;1025;42.686;23.350;2024-03-29T04:28:44;7.10;;;2.90;;
2039;SDS011;1025;42.686;23.350;2024-03-29T04:31:09;5.77;;;3.50;;
2039;SDS011;1025;42.686;23.350;2024-03-29T04:33:35;5.60;;;4.00;;
2039;SDS011;1025;42.686;23.350;2024-03-29T04:36:02;4.83;;;2.10;;
2039;SDS011;1025;42.686;23.350;2024-03-29T04:38:29;9.57;;;4.60;;
2039;SDS011;1025;42.686;23.350;2024-03-29T04:40:56;7.23;;;3.83;;
2039;SDS011;1025;42.686;23.350;2024-03-29T04:43:27;8.77;;;4.10;;
2039;SDS011;1025;42.686;23.350;2024-03-29T04:46:03;18.87;;;4.50;;
2039;SDS011;1025;42.686;23.350;2024-03-29T04:48:37;12.30;;;6.83;;
2039;SDS011;1025;42.686;23.350;2024-03-29T04:51:06;5.33;;;3.10;;
2039;SDS011;1025;42.686;23.350;2024-03-29T04:53:35;5.73;;;2.60;;
2039;SDS011;1025;42.686;23.350;2024-03-29T04:56:01;9.43;;;3.77;;
2039;SDS011;1025;42.686;23.350;2024-03-29T04:58:27;11.57;;;5.03;;
2039;SDS011;1025;42.686;23.350;2024-03-29T05:00:57;13.77;;;4.63;;
2039;SDS011;1025;42.686;23.350;2024-03-29T05:03:22;9.77;;;4.23;;
2039;SDS011;1025;42.686;23.350;2024-03-29T05:05:51;6.83;;;2.37;;
2039;SDS011;1025;42.686;23.350;2024-03-29T05:08:17;8.70;;;3.77;;
2039;SDS011;1025;42.686;23.350;2024-03-29T05:10:44;9.57;;;4.30;;
2039;SDS011;1025;42.686;23.350;2024-03-29T05:13:10;8.33;;;4.13;;
2039;SDS011;1025;42.686;23.350;2024-03-29T05:15:36;16.83;;;5.13;;
2039;SDS011;1025;42.686;23.350;2024-03-29T05:18:02;21.33;;;6.00;;
2039;SDS011;1025;42.686;23.350;2024-03-29T05:20:28;16.90;;;6.17;;
2039;SDS011;1025;42.686;23.350;2024-03-29T05:22:58;16.60;;;7.27;;
2039;SDS011;1025;42.686;23.350;2024-03-29T05:25:24;19.70;;;9.03;;
2039;SDS011;1025;42.686;23.350;2024-03-29T05:27:50;18.07;;;6.57;;
2039;SDS011;1025;42.686;23.350;2024-03-29T05:30:15;21.27;;;6.30;;
2039;SDS011;1025;42.686;23.350;2024-03-29T05:32:41;27.20;;;8.00;;
2039;SDS011;1025;42.686;23.350;2024-03-29T05:35:07;27.77;;;6.93;;
2039;SDS011;1025;42.686;23.350;2024-03-29T05:37:33;27.30;;;7.30;;
2039;SDS011;1025;42.686;23.350;2024-03-29T05:40:00;21.17;;;5.60;;
2039;SDS011;1025;42.686;23.350;2024-03-29T05:42:26;11.57;;;5.43;;
2039;SDS011;1025;42.686;23.350;2024-03-29T05:44:51;7.80;;;5.30;;
2039;SDS011;1025;42.686;23.350;2024-03-29T05:47:17;16.43;;;7.53;;
2039;SDS011;1025;42.686;23.350;2024-03-29T05:49:42;19.23;;;6.70;;
2039;SDS011;1025;42.686;23.350;2024-03-29T05:52:11;12.47;;;5.83;;
2039;SDS011;1025;42.686;23.350;2024-03-29T05:54:40;11.13;;;4.90;;
2039;SDS011;1025;42.686;23.350;2024-03-29T05:57:06;17.03;;;4.70;;
2039;SDS011;1025;42.686;23.350;2024-03-29T05:59:34;15.67;;;7.07;;
2039;SDS011;1025;42.686;23.350;2024-03-29T06:01:59;11.67;;;5.63;;
2039;SDS011;1025;42.686;23.350;2024-03-29T06:04:25;9.23;;;4.80;;
2039;SDS011;1025;42.686;23.350;2024-03-29T06:06:57;19.13;;;6.10;;
2039;SDS011;1025;42.686;23.350;2024-03-29T06:09:24;12.70;;;4.47;;
2039;SDS011;1025;42.686;23.350;2024-03-29T06:11:49;6.80;;;3.80;;
2039;SDS011;1025;42.686;23.350;2024-03-29T06:14:15;7.40;;;4.23;;
2039;SDS011;1025;42.686;23.350;2024-03-29T06:17:01;10.67;;;4.47;;
2039;SDS011;1025;42.686;23.350;2024-03-29T06:19:45;13.90;;;4.60;;
2039;SDS011;1025;42.686;23.350;2024-03-29T06:22:10;7.30;;;3.63;;
2039;SDS011;1025;42.686;23.350;2024-03-29T06:24:36;7.90;;;4.27;;
2039;SDS011;1025;42.686;23.350;2024-03-29T06:27:01;44.60;;;7.63;;
2039;SDS011;1025;42.686;23.350;2024-03-29T06:29:29;24.50;;;6.83;;
2039;SDS011;1025;42.686;23.350;2024-03-29T06:31:54;17.83;;;5.60;;
2039;SDS011;1025;42.686;23.350;2024-03-29T06:34:20;6.47;;;3.27;;
2039;SDS011;1025;42.686;23.350;2024-03-29T06:36:47;20.83;;;6.90;;
2039;SDS011;1025;42.686;23.350;2024-03-29T06:39:13;14.40;;;5.50;;
2039;SDS011;1025;42.686;23.350;2024-03-29T06:41:38;12.37;;;6.33;;
2039;SDS011;1025;42.686;23.350;2024-03-29T06:44:04;12.07;;;4.53;;
2039;SDS011;1025;42.686;23.350;2024-03-29T06:46:29;13.63;;;5.30;;
2039;SDS011;1025;42.686;23.350;2024-03-29T06:48:55;11.23;;;5.47;;
2039;SDS011;1025;42.686;23.350;2024-03-29T06:51:20;16.00;;;5.03;;
2039;SDS011;1025;42.686;23.350;2024-03-29T06:53:45;15.30;;;5.97;;
2039;SDS011;1025;42.686;23.350;2024-03-29T06:56:11;12.07;;;5.37;;
2039;SDS011;1025;42.686;23.350;2024-03-29T06:58:40;10.27;;;4.80;;
2039;SDS011;1025;42.686;23.350;2024-03-29T07:01:06;11.00;;;3.60;;
2039;SDS011;1025;42.686;23.350;2024-03-29T07:03:32;16.87;;;6.33;;
2039;SDS011;1025;42.686;23.350;2024-03-29T07:05:57;16.43;;;6.60;;
2039;SDS011;1025;42.686;23.350;2024-03-29T07:08:23;7.10;;;2.87;;
2039;SDS011;1025;42.686;23.350;2024-03-29T07:10:56;5.43;;;3.30;;
2039;SDS011;1025;42.686;23.350;2024-03-29T07:13:22;10.10;;;3.00;;
2039;SDS011;1025;42.686;23.350;2024-03-29T07:15:51;9.10;;;3.97;;
2039;SDS011;1025;42.686;23.350;2024-03-29T07:18:20;7.93;;;2.77;;
2039;SDS011;1025;42.686;23.350;2024-03-29T07:20:46;8.80;;;2.30;;
2039;SDS011;1025;42.686;23.350;2024-03-29T07:23:11;9.73;;;4.10;;
2039;SDS011;1025;42.686;23.350;2024-03-29T07:25:40;7.47;;;2.97;;
2039;SDS011;1025;42.686;23.350;2024-03-29T07:28:06;10.00;;;2.70;;
2039;SDS011;1025;42.686;23.350;2024-03-29T07:30:32;7.10;;;2.57;;
2039;SDS011;1025;42.686;23.350;2024-03-29T07:32:57;16.63;;;6.07;;
2039;SDS011;1025;42.686;23.350;2024-03-29T07:35:23;9.33;;;2.93;;
2039;SDS011;1025;42.686;23.350;2024-03-29T07:37:49;8.60;;;2.97;;
2039;SDS011;1025;42.686;23.350;2024-03-29T07:40:18;14.43;;;7.27;;
2039;SDS011;1025;42.686;23.350;2024-03-29T07:42:44;6.83;;;3.90;;
2039;SDS011;1025;42.686;23.350;2024-03-29T07:45:09;5.03;;;2.53;;
2039;SDS011;1025;42.686;23.350;2024-03-29T07:47:37;4.37;;;2.40;;
2039;SDS011;1025;42.686;23.350;2024-03-29T07:50:02;7.60;;;3.00;;
2039;SDS011;1025;42.686;23.350;2024-03-29T07:52:28;7.27;;;3.00;;
2039;SDS011;1025;42.686;23.350;2024-03-29T07:54:55;11.83;;;3.30;;
2039;SDS011;1025;42.686;23.350;2024-03-29T07:57:21;7.40;;;2.83;;
2039;SDS011;1025;42.686;23.350;2024-03-29T07:59:46;7.30;;;3.80;;
2039;SDS011;1025;42.686;23.350;2024-03-29T08:02:16;8.57;;;3.30;;
2039;SDS011;1025;42.686;23.350;2024-03-29T08:04:41;5.13;;;2.03;;
2039;SDS011;1025;42.686;23.350;2024-03-29T08:07:08;5.03;;;2.33;;
2039;SDS011;1025;42.686;23.350;2024-03-29T08:09:38;8.37;;;3.10;;
2039;SDS011;1025;42.686;23.350;2024-03-29T08:12:06;8.20;;;2.23;;
2039;SDS011;1025;42.686;23.350;2024-03-29T08:14:32;4.23;;;1.73;;
2039;SDS011;1025;42.686;23.350;2024-03-29T08:17:00;8.13;;;2.83;;
2039;SDS011;1025;42.686;23.350;2024-03-29T08:19:29;4.37;;;2.40;;
2039;SDS011;1025;42.686;23.350;2024-03-29T08:21:55;9.80;;;4.70;;
2039;SDS011;1025;42.686;23.350;2024-03-29T08:24:25;5.67;;;2.77;;
2039;SDS011;1025;42.686;23.350;2024-03-29T08:26:51;15.30;;;4.07;;
2039;SDS011;1025;42.686;23.350;2024-03-29T08:29:17;7.37;;;3.70;;
2039;SDS011;1025;42.686;23.350;2024-03-29T08:31:46;6.13;;;2.70;;
2039;SDS011;1025;42.686;23.350;2024-03-29T08:34:11;7.67;;;3.10;;
2039;SDS011;1025;42.686;23.350;2024-03-29T08:36:39;3.53;;;1.70;;
2039;SDS011;1025;42.686;23.350;2024-03-29T08:39:08;7.80;;;2.90;;
2039;SDS011;1025;42.686;23.350;2024-03-29T08:41:33;5.13;;;2.97;;
2039;SDS011;1025;42.686;23.350;2024-03-29T08:43:58;14.30;;;4.13;;
2039;SDS011;1025;42.686;23.350;2024-03-29T08:46:24;11.20;;;3.40;;
2039;SDS011;1025;42.686;23.350;2024-03-29T08:48:49;10.13;;;2.50;;
2039;SDS011;1025;42.686;23.350;2024-03-29T08:51:15;6.60;;;2.70;;
2039;SDS011;1025;42.686;23.350;2024-03-29T08:53:42;8.60;;;2.93;;
2039;SDS011;1025;42.686;23.350;2024-03-29T08:56:08;9.20;;;2.80;;
2039;SDS011;1025;42.686;23.350;2024-03-29T08:58:33;6.10;;;2.47;;
2039;SDS011;1025;42.686;23.350;2024-03-29T09:01:04;7.60;;;2.10;;
2039;SDS011;1025;42.686;23.350;2024-03-29T09:03:30;5.13;;;1.70;;
2039;SDS011;1025;42.686;23.350;2024-03-29T09:05:56;4.07;;;3.03;;
2039;SDS011;1025;42.686;23.350;2024-03-29T09:08:24;5.40;;;2.07;;
2039;SDS011;1025;42.686;23.350;2024-03-29T09:10:49;5.93;;;2.40;;
2039;SDS011;1025;42.686;23.350;2024-03-29T09:13:14;7.10;;;4.67;;
2039;SDS011;1025;42.686;23.350;2024-03-29T09:15:43;5.53;;;2.00;;
2039;SDS011;1025;42.686;23.350;2024-03-29T09:18:09;7.70;;;3.20;;
2039;SDS011;1025;42.686;23.350;2024-03-29T09:20:38;7.00;;;3.03;;
2039;SDS011;1025;42.686;23.350;2024-03-29T09:23:07;8.50;;;4.70;;
2039;SDS011;1025;42.686;23.350;2024-03-29T09:25:32;9.10;;;2.53;;
2039;SDS011;1025;42.686;23.350;2024-03-29T09:27:57;9.00;;;3.77;;
2039;SDS011;1025;42.686;23.350;2024-03-29T09:30:25;6.60;;;3.60;;
2039;SDS011;1025;42.686;23.350;2024-03-29T09:32:50;8.30;;;3.40;;
2039;SDS011;1025;42.686;23.350;2024-03-29T09:35:17;11.90;;;3.27;;
2039;SDS011;1025;42.686;23.350;2024-03-29T09:37:44;4.83;;;2.73;;
2039;SDS011;1025;42.686;23.350;2024-03-29T09:40:10;10.60;;;3.10;;
2039;SDS011;1025;42.686;23.350;2024-03-29T09:42:36;11.70;;;2.70;;
2039;SDS011;1025;42.686;23.350;2024-03-29T09:45:04;17.80;;;3.37;;
2039;SDS011;1025;42.686;23.350;2024-03-29T09:47:31;6.00;;;2.50;;
2039;SDS011;1025;42.686;23.350;2024-03-29T09:49:59;4.17;;;2.00;;
2039;SDS011;1025;42.686;23.350;2024-03-29T09:52:28;8.10;;;2.80;;
2039;SDS011;1025;42.686;23.350;2024-03-29T09:54:54;6.73;;;1.40;;
2039;SDS011;1025;42.686;23.350;2024-03-29T09:57:21;2.43;;;1.60;;
2039;SDS011;1025;42.686;23.350;2024-03-29T09:59:49;7.37;;;3.07;;
2039;SDS011;1025;42.686;23.350;2024-03-29T10:02:16;7.70;;;2.73;;
2039;SDS011;1025;42.686;23.350;2024-03-29T10:04:46;5.17;;;2.50;;
2039;SDS011;1025;42.686;23.350;2024-03-29T10:07:15;3.93;;;2.80;;
2039;SDS011;1025;42.686;23.350;2024-03-29T10:09:42;6.63;;;2.93;;
2039;SDS011;1025;42.686;23.350;2024-03-29T10:12:09;3.23;;;1.93;;
2039;SDS011;1025;42.686;23.350;2024-03-29T10:14:48;3.40;;;2.33;;
2039;SDS011;1025;42.686;23.350;2024-03-29T10:17:18;4.13;;;1.60;;
2039;SDS011;1025;42.686;23.350;2024-03-29T10:19:49;6.33;;;2.17;;
2039;SDS011;1025;42.686;23.350;2024-03-29T10:22:15;5.80;;;1.83;;
2039;SDS011;1025;42.686;23.350;2024-03-29T10:24:41;6.50;;;3.80;;
2039;SDS011;1025;42.686;23.350;2024-03-29T10:27:09;4.67;;;2.40;;
2039;SDS011;1025;42.686;23.350;2024-03-29T10:29:34;7.80;;;2.50;;
2039;SDS011;1025;42.686;23.350;2024-03-29T10:32:00;4.10;;;1.60;;
2039;SDS011;1025;42.686;23.350;2024-03-29T10:34:27;10.23;;;3.10;;
2039;SDS011;1025;42.686;23.350;2024-03-29T10:36:58;3.87;;;2.43;;
2039;SDS011;1025;42.686;23.350;2024-03-29T10:39:25;14.13;;;3.10;;
2039;SDS011;1025;42.686;23.350;2024-03-29T10:41:50;14.13;;;4.60;;
2039;SDS011;1025;42.686;23.350;2024-03-29T10:44:17;4.07;;;1.87;;
2039;SDS011;1025;42.686;23.350;2024-03-29T10:46:45;4.93;;;3.30;;
2039;SDS011;1025;42.686;23.350;2024-03-29T10:49:13;4.60;;;2.53;;
2039;SDS011;1025;42.686;23.350;2024-03-29T10:51:42;7.30;;;2.20;;
2039;SDS011;1025;42.686;23.350;2024-03-29T10:54:08;8.00;;;3.53;;
2039;SDS011;1025;42.686;23.350;2024-03-29T10:56:34;8.83;;;2.27;;
2039;SDS011;1025;42.686;23.350;2024-03-29T11:02:11;15.33;;;6.67;;
2039;SDS011;1025;42.686;23.350;2024-03-29T11:04:39;7.47;;;3.53;;
2039;SDS011;1025;42.686;23.350;2024-03-29T11:07:06;2.87;;;1.80;;
2039;SDS011;1025;42.686;23.350;2024-03-29T11:09:37;14.83;;;2.70;;
2039;SDS011;1025;42.686;23.350;2024-03-29T11:12:04;8.40;;;3.20;;
2039;SDS011;1025;42.686;23.350;2024-03-29T11:14:35;8.13;;;2.80;;
2039;SDS011;1025;42.686;23.350;2024-03-29T11:17:04;13.80;;;4.23;;
2039;SDS011;1025;42.686;23.350;2024-03-29T11:19:35;6.83;;;2.53;;
2039;SDS011;1025;42.686;23.350;2024-03-29T11:22:01;6.30;;;2.10;;
2039;SDS011;1025;42.686;23.350;2024-03-29T11:24:27;6.50;;;2.77;;
2039;SDS011;1025;42.686;23.350;2024-03-29T11:26:56;9.00;;;3.20;;
2039;SDS011;1025;42.686;23.350;2024-03-29T11:29:22;5.13;;;2.67;;
2039;SDS011;1025;42.686;23.350;2024-03-29T11:31:58;4.03;;;1.90;;
2039;SDS011;1025;42.686;23.350;2024-03-29T11:34:30;6.20;;;2.67;;
2039;SDS011;1025;42.686;23.350;2024-03-29T11:37:05;7.70;;;3.00;;
2039;SDS011;1025;42.686;23.350;2024-03-29T11:39:40;8.90;;;3.07;;
2039;SDS011;1025;42.686;23.350;2024-03-29T11:42:12;6.03;;;3.63;;
2039;SDS011;1025;42.686;23.350;2024-03-29T11:44:38;2.60;;;2.10;;
2039;SDS011;1025;42.686;23.350;2024-03-29T11:47:04;4.00;;;1.90;;
2039;SDS011;1025;42.686;23.350;2024-03-29T11:49:32;7.10;;;2.40;;
2039;SDS011;1025;42.686;23.350;2024-03-29T11:52:02;8.60;;;3.13;;
2039;SDS011;1025;42.686;23.350;2024-03-29T11:54:36;7.00;;;2.70;;
2039;SDS011;1025;42.686;23.350;2024-03-29T11:57:02;6.33;;;3.70;;
2039;SDS011;1025;42.686;23.350;2024-03-29T11:59:27;5.40;;;2.50;;
2039;SDS011;1025;42.686;23.350;2024-03-29T12:01:55;5.67;;;2.57;;
2039;SDS011;1025;42.686;23.350;2024-03-29T12:04:21;7.03;;;3.13;;
2039;SDS011;1025;42.686;23.350;2024-03-29T12:06:47;6.43;;;2.63;;
2039;SDS011;1025;42.686;23.350;2024-03-29T12:09:14;9.90;;;3.60;;
2039;SDS011;1025;42.686;23.350;2024-03-29T12:11:42;4.53;;;2.70;;
2039;SDS011;1025;42.686;23.350;2024-03-29T12:14:13;4.40;;;2.40;;
2039;SDS011;1025;42.686;23.350;2024-03-29T12:16:46;8.30;;;3.43;;
2039;SDS011;1025;42.686;23.350;2024-03-29T12:19:22;6.40;;;3.30;;
2039;SDS011;1025;42.686;23.350;2024-03-29T12:21:48;3.53;;;1.67;;
2039;SDS011;1025;42.686;23.350;2024-03-29T12:24:15;11.03;;;2.37;;
2039;SDS011;1025;42.686;23.350;2024-03-29T12:26:41;8.83;;;3.33;;
2039;SDS011;1025;42.686;23.350;2024-03-29T12:29:08;5.37;;;2.40;;
2039;SDS011;1025;42.686;23.350;2024-03-29T12:31:34;6.27;;;2.43;;
2039;SDS011;1025;42.686;23.350;2024-03-29T12:34:00;4.83;;;2.87;;
2039;SDS011;1025;42.686;23.350;2024-03-29T12:36:26;11.47;;;3.10;;
2039;SDS011;1025;42.686;23.350;2024-03-29T12:38:55;4.93;;;2.13;;
2039;SDS011;1025;42.686;23.350;2024-03-29T12:41:23;6.47;;;2.47;;
2039;SDS011;1025;42.686;23.350;2024-03-29T12:43:50;3.73;;;2.20;;
2039;SDS011;1025;42.686;23.350;2024-03-29T12:46:17;2.90;;;1.80;;
2039;SDS011;1025;42.686;23.350;2024-03-29T12:48:43;5.23;;;1.70;;
2039;SDS011;1025;42.686;23.350;2024-03-29T12:51:08;6.73;;;2.27;;
2039;SDS011;1025;42.686;23.350;2024-03-29T12:53:34;6.70;;;2.83;;
2039;SDS011;1025;42.686;23.350;2024-03-29T12:56:03;7.80;;;2.17;;
2039;SDS011;1025;42.686;23.350;2024-03-29T12:58:30;11.03;;;5.87;;
2039;SDS011;1025;42.686;23.350;2024-03-29T13:00:56;3.87;;;2.67;;
2039;SDS011;1025;42.686;23.350;2024-03-29T13:03:21;4.77;;;2.33;;
2039;SDS011;1025;42.686;23.350;2024-03-29T13:05:47;4.37;;;1.93;;
2039;SDS011;1025;42.686;23.350;2024-03-29T13:08:13;6.17;;;2.50;;
2039;SDS011;1025;42.686;23.350;2024-03-29T13:10:42;5.13;;;2.00;;
2039;SDS011;1025;42.686;23.350;2024-03-29T13:13:09;4.97;;;1.60;;
2039;SDS011;1025;42.686;23.350;2024-03-29T13:15:35;8.43;;;1.97;;
2039;SDS011;1025;42.686;23.350;2024-03-29T13:18:02;8.03;;;2.73;;
2039;SDS011;1025;42.686;23.350;2024-03-29T13:20:29;2.83;;;1.40;;
2039;SDS011;1025;42.686;23.350;2024-03-29T13:22:55;3.20;;;1.57;;
2039;SDS011;1025;42.686;23.350;2024-03-29T13:25:22;3.80;;;2.17;;
2039;SDS011;1025;42.686;23.350;2024-03-29T13:27:51;5.57;;;2.03;;
2039;SDS011;1025;42.686;23.350;2024-03-29T13:30:19;11.10;;;3.10;;
2039;SDS011;1025;42.686;23.350;2024-03-29T13:32:49;13.03;;;3.87;;
2039;SDS011;1025;42.686;23.350;2024-03-29T13:35:18;4.47;;;2.00;;
2039;SDS011;1025;42.686;23.350;2024-03-29T13:37:46;7.70;;;2.20;;
2039;SDS011;1025;42.686;23.350;2024-03-29T13:40:13;8.13;;;3.60;;
2039;SDS011;1025;42.686;23.350;2024-03-29T13:42:43;9.00;;;2.17;;
2039;SDS011;1025;42.686;23.350;2024-03-29T13:45:09;2.40;;;1.20;;
2039;SDS011;1025;42.686;23.350;2024-03-29T13:47:42;2.73;;;1.40;;
2039;SDS011;1025;42.686;23.350;2024-03-29T13:50:10;4.00;;;2.20;;
2039;SDS011;1025;42.686;23.350;2024-03-29T13:52:36;3.00;;;2.17;;
2039;SDS011;1025;42.686;23.350;2024-03-29T13:55:02;4.60;;;1.90;;
2039;SDS011;1025;42.686;23.350;2024-03-29T13:57:30;7.50;;;1.70;;
2039;SDS011;1025;42.686;23.350;2024-03-29T13:59:56;4.00;;;1.70;;
2039;SDS011;1025;42.686;23.350;2024-03-29T14:02:21;3.60;;;2.20;;
2039;SDS011;1025;42.686;23.350;2024-03-29T14:04:49;3.83;;;2.47;;
2039;SDS011;1025;42.686;23.350;2024-03-29T14:07:15;12.90;;;5.30;;
2039;SDS011;1025;42.686;23.350;2024-03-29T14:09:42;3.83;;;2.33;;
2039;SDS011;1025;42.686;23.350;2024-03-29T14:12:12;10.40;;;2.00;;
2039;SDS011;1025;42.686;23.350;2024-03-29T14:14:42;7.80;;;2.70;;
2039;SDS011;1025;42.686;23.350;2024-03-29T14:17:08;9.53;;;2.73;;
2039;SDS011;1025;42.686;23.350;2024-03-29T14:19:36;4.83;;;1.70;;
2039;SDS011;1025;42.686;23.350;2024-03-29T14:22:01;9.70;;;2.33;;
2039;SDS011;1025;42.686;23.350;2024-03-29T14:24:30;2.90;;;1.50;;
2039;SDS011;1025;42.686;23.350;2024-03-29T14:27:00;2.00;;;1.23;;
2039;SDS011;1025;42.686;23.350;2024-03-29T14:29:25;2.87;;;1.43;;
2039;SDS011;1025;42.686;23.350;2024-03-29T14:31:51;5.17;;;1.20;;
2039;SDS011;1025;42.686;23.350;2024-03-29T14:34:18;2.50;;;1.53;;
2039;SDS011;1025;42.686;23.350;2024-03-29T14:36:44;2.73;;;1.47;;
2039;SDS011;1025;42.686;23.350;2024-03-29T14:39:10;4.20;;;1.70;;
2039;SDS011;1025;42.686;23.350;2024-03-29T14:41:40;2.00;;;1.30;;
2039;SDS011;1025;42.686;23.350;2024-03-29T14:44:06;4.40;;;1.97;;
2039;SDS011;1025;42.686;23.350;2024-03-29T14:46:32;4.10;;;1.70;;
2039;SDS011;1025;42.686;23.350;2024-03-29T14:49:00;4.37;;;1.80;;
2039;SDS011;1025;42.686;23.350;2024-03-29T14:51:29;5.90;;;2.53;;
2039;SDS011;1025;42.686;23.350;2024-03-29T14:53:55;2.33;;;1.53;;
2039;SDS011;1025;42.686;23.350;2024-03-29T14:56:21;4.70;;;1.40;;
2039;SDS011;1025;42.686;23.350;2024-03-29T14:58:46;2.10;;;1.40;;
2039;SDS011;1025;42.686;23.350;2024-03-29T15:01:12;2.40;;;1.43;;